Time,TemperatureF,DewpointF,PressureIn,WindDirection,WindDirectionDegrees,WindSpeedMPH,WindSpeedGustMPH,Humidity,HourlyPrecipIn,Conditions,Clouds,dailyrainin,SoftwareType,DateUTC
2013-01-06 05:01:00,30.6,26.9,30.00,West,280,3.0,3.0,86,0.00,,,0.00,Wunderground v.1.15,2013-01-06 11:01:00,
2013-01-06 05:02:00,30.6,26.9,30.00,WNW,287,3.0,3.0,86,0.00,,,0.00,Wunderground v.1.15,2013-01-06 11:02:00,
2013-01-06 05:04:00,30.4,26.7,30.00,WNW,283,3.0,3.0,86,0.00,,,0.00,Wunderground v.1.15,2013-01-06 11:04:00,
2013-01-06 05:09:00,30.0,26.3,30.00,WNW,299,3.0,4.0,86,0.00,,,0.00,Wunderground v.1.15,2013-01-06 11:09:00,
2013-01-06 05:14:00,29.8,25.8,30.00,WNW,289,4.0,5.0,85,0.00,,,0.00,Wunderground v.1.15,2013-01-06 11:14:00,
2013-01-06 05:20:00,29.8,25.8,30.00,West,273,4.0,6.0,85,0.00,,,0.00,Wunderground v.1.15,2013-01-06 11:20:00,
2013-01-06 05:25:00,29.7,25.7,30.01,NW,308,4.0,6.0,85,0.00,,,0.00,Wunderground v.1.15,2013-01-06 11:25:00,
2013-01-06 05:30:00,29.5,25.3,30.01,West,266,5.0,7.0,84,0.00,,,0.00,Wunderground v.1.15,2013-01-06 11:30:00,
2013-01-06 05:35:00,29.1,24.6,30.02,WNW,294,5.0,7.0,83,0.00,,,0.00,Wunderground v.1.15,2013-01-06 11:35:00,
2013-01-06 05:40:00,28.8,24.3,30.02,West,267,5.0,11.0,83,0.00,,,0.00,Wunderground v.1.15,2013-01-06 11:40:00,
2013-01-06 05:46:00,28.6,24.1,30.02,West,276,6.0,11.0,83,0.00,,,0.00,Wunderground v.1.15,2013-01-06 11:46:00,
2013-01-06 05:51:00,28.5,24.0,30.02,WNW,297,5.0,6.0,83,0.00,,,0.00,Wunderground v.1.15,2013-01-06 11:51:00,
2013-01-06 05:56:00,28.4,24.2,30.02,West,278,4.0,6.0,84,0.00,,,0.00,Wunderground v.1.15,2013-01-06 11:56:00,
2013-01-06 06:01:00,28.1,23.3,30.03,WNW,293,5.0,6.0,82,0.00,,,0.00,Wunderground v.1.15,2013-01-06 12:01:00,
2013-01-06 06:06:00,27.9,23.4,30.03,WNW,302,5.0,10.0,83,0.00,,,0.00,Wunderground v.1.15,2013-01-06 12:06:00,
2013-01-06 06:12:00,27.5,22.7,30.03,WNW,285,6.0,12.0,82,0.00,,,0.00,Wunderground v.1.15,2013-01-06 12:12:00,
2013-01-06 06:17:00,26.9,22.1,30.03,WNW,297,6.0,12.0,82,0.00,,,0.00,Wunderground v.1.15,2013-01-06 12:17:00,
2013-01-06 06:22:00,26.2,21.5,30.03,WNW,293,6.0,6.0,82,0.00,,,0.00,Wunderground v.1.15,2013-01-06 12:22:00,
2013-01-06 06:27:00,25.7,21.3,30.04,WSW,245,6.0,8.0,83,0.00,,,0.00,Wunderground v.1.15,2013-01-06 12:27:00,
2013-01-06 06:32:00,25.4,21.2,30.04,WNW,283,5.0,6.0,84,0.00,,,0.00,Wunderground v.1.15,2013-01-06 12:32:00,
2013-01-06 06:38:00,25.2,21.0,30.05,West,271,4.0,6.0,84,0.00,,,0.00,Wunderground v.1.15,2013-01-06 12:38:00,
2013-01-06 06:43:00,25.1,20.9,30.04,WNW,283,3.0,4.0,84,0.00,,,0.00,Wunderground v.1.15,2013-01-06 12:43:00,
2013-01-06 06:48:00,25.1,20.9,30.05,WNW,295,3.0,6.0,84,0.00,,,0.00,Wunderground v.1.15,2013-01-06 12:48:00,
2013-01-06 06:53:00,24.8,20.7,30.05,West,270,6.0,11.0,84,0.00,,,0.00,Wunderground v.1.15,2013-01-06 12:53:00,
2013-01-06 06:58:00,24.6,20.5,30.05,WSW,241,7.0,13.0,84,0.00,,,0.00,Wunderground v.1.15,2013-01-06 12:58:00,
2013-01-06 07:04:00,24.3,19.9,30.05,WNW,294,6.0,11.0,83,0.00,,,0.00,Wunderground v.1.15,2013-01-06 13:04:00,
2013-01-06 07:09:00,24.0,19.6,30.05,West,280,5.0,11.0,83,0.00,,,0.00,Wunderground v.1.15,2013-01-06 13:09:00,
2013-01-06 07:14:00,23.7,19.6,30.06,WNW,299,6.0,9.0,84,0.00,,,0.00,Wunderground v.1.15,2013-01-06 13:14:00,
2013-01-06 07:19:00,23.5,19.4,30.06,West,280,7.0,9.0,84,0.00,,,0.00,Wunderground v.1.15,2013-01-06 13:19:00,
2013-01-06 07:24:00,23.3,19.2,30.06,WNW,289,6.0,7.0,84,0.00,,,0.00,Wunderground v.1.15,2013-01-06 13:24:00,
2013-01-06 07:30:00,23.1,19.0,30.06,WNW,297,6.0,7.0,84,0.00,,,0.00,Wunderground v.1.15,2013-01-06 13:30:00,
2013-01-06 07:35:00,23.1,19.0,30.06,WNW,290,6.0,7.0,84,0.00,,,0.00,Wunderground v.1.15,2013-01-06 13:35:00,
2013-01-06 07:40:00,23.1,19.3,30.07,West,262,6.0,6.0,85,0.00,,,0.00,Wunderground v.1.15,2013-01-06 13:40:00,
2013-01-06 07:45:00,23.1,19.3,30.07,WSW,257,5.0,6.0,85,0.00,,,0.00,Wunderground v.1.15,2013-01-06 13:45:00,
2013-01-06 07:50:00,23.1,19.3,30.07,WNW,290,4.0,4.0,85,0.00,,,0.00,Wunderground v.1.15,2013-01-06 13:50:00,
2013-01-06 07:55:00,23.2,19.4,30.07,West,276,4.0,5.0,85,0.00,,,0.00,Wunderground v.1.15,2013-01-06 13:55:00,
2013-01-06 08:00:00,23.1,19.0,30.07,WSW,256,4.0,9.0,84,0.00,,,0.00,Wunderground v.1.15,2013-01-06 14:00:00,
2013-01-06 08:06:00,22.9,18.5,30.08,West,280,6.0,9.0,83,0.00,,,0.00,Wunderground v.1.15,2013-01-06 14:06:00,
2013-01-06 08:11:00,22.9,18.8,30.08,NW,305,5.0,6.0,84,0.00,,,0.00,Wunderground v.1.15,2013-01-06 14:11:00,
2013-01-06 08:16:00,22.8,18.7,30.08,WNW,295,4.0,7.0,84,0.00,,,0.00,Wunderground v.1.15,2013-01-06 14:16:00,
2013-01-06 08:22:00,22.8,18.4,30.08,NW,306,4.0,8.0,83,0.00,,,0.00,Wunderground v.1.15,2013-01-06 14:22:00,
2013-01-06 08:27:00,22.5,18.1,30.08,West,273,5.0,8.0,83,0.00,,,0.00,Wunderground v.1.15,2013-01-06 14:27:00,
2013-01-06 08:32:00,22.3,17.9,30.09,West,280,6.0,7.0,83,0.00,,,0.00,Wunderground v.1.15,2013-01-06 14:32:00,
2013-01-06 08:37:00,22.0,17.6,30.09,WNW,286,6.0,9.0,83,0.00,,,0.00,Wunderground v.1.15,2013-01-06 14:37:00,
2013-01-06 08:42:00,22.0,17.9,30.10,WNW,283,5.0,5.0,84,0.00,,,0.00,Wunderground v.1.15,2013-01-06 14:42:00,
2013-01-06 08:48:00,21.9,17.8,30.10,West,262,5.0,9.0,84,0.00,,,0.00,Wunderground v.1.15,2013-01-06 14:48:00,
2013-01-06 08:53:00,21.9,17.8,30.11,West,274,5.0,5.0,84,0.00,,,0.00,Wunderground v.1.15,2013-01-06 14:53:00,
2013-01-06 08:58:00,21.9,17.8,30.11,WNW,299,4.0,6.0,84,0.00,,,0.00,Wunderground v.1.15,2013-01-06 14:58:00,
2013-01-06 09:03:00,21.9,17.8,30.11,West,280,5.0,15.0,84,0.00,,,0.00,Wunderground v.1.15,2013-01-06 15:03:00,
2013-01-06 09:08:00,22.0,17.9,30.12,NW,309,6.0,15.0,84,0.00,,,0.00,Wunderground v.1.15,2013-01-06 15:08:00,
2013-01-06 09:14:00,22.3,18.2,30.12,West,280,5.0,8.0,84,0.00,,,0.00,Wunderground v.1.15,2013-01-06 15:14:00,
2013-01-06 09:19:00,22.7,18.3,30.12,WNW,283,6.0,11.0,83,0.00,,,0.00,Wunderground v.1.15,2013-01-06 15:19:00,
2013-01-06 09:24:00,23.3,18.9,30.12,WNW,297,6.0,8.0,83,0.00,,,0.00,Wunderground v.1.15,2013-01-06 15:24:00,
2013-01-06 09:29:00,23.4,18.7,30.13,West,266,6.0,11.0,82,0.00,,,0.00,Wunderground v.1.15,2013-01-06 15:29:00,
2013-01-06 09:34:00,23.3,18.6,30.13,WNW,302,6.0,10.0,82,0.00,,,0.00,Wunderground v.1.15,2013-01-06 15:34:00,
2013-01-06 09:40:00,23.1,18.7,30.13,WNW,290,5.0,7.0,83,0.00,,,0.00,Wunderground v.1.15,2013-01-06 15:40:00,
2013-01-06 09:45:00,23.0,18.6,30.13,WNW,290,5.0,7.0,83,0.00,,,0.00,Wunderground v.1.15,2013-01-06 15:45:00,
2013-01-06 09:50:00,22.7,18.3,30.14,WNW,299,6.0,6.0,83,0.00,,,0.00,Wunderground v.1.15,2013-01-06 15:50:00,
2013-01-06 09:55:00,22.7,18.3,30.14,West,278,6.0,9.0,83,0.00,,,0.00,Wunderground v.1.15,2013-01-06 15:55:00,
2013-01-06 10:00:00,22.8,18.7,30.14,WNW,285,5.0,6.0,84,0.00,,,0.00,Wunderground v.1.15,2013-01-06 16:00:00,
2013-01-06 10:05:00,22.9,18.5,30.15,West,271,5.0,10.0,83,0.00,,,0.00,Wunderground v.1.15,2013-01-06 16:05:00,
2013-01-06 10:11:00,23.0,18.6,30.15,NW,308,5.0,5.0,83,0.00,,,0.00,Wunderground v.1.15,2013-01-06 16:11:00,
2013-01-06 10:16:00,23.4,19.3,30.15,WNW,288,5.0,5.0,84,0.00,,,0.00,Wunderground v.1.15,2013-01-06 16:16:00,
2013-01-06 10:21:00,23.7,19.6,30.15,WNW,283,5.0,7.0,84,0.00,,,0.00,Wunderground v.1.15,2013-01-06 16:21:00,
2013-01-06 10:26:00,23.8,19.4,30.15,WNW,283,6.0,7.0,83,0.00,,,0.00,Wunderground v.1.15,2013-01-06 16:26:00,
2013-01-06 10:32:00,23.9,19.5,30.15,WNW,287,5.0,7.0,83,0.00,,,0.00,Wunderground v.1.15,2013-01-06 16:32:00,
2013-01-06 10:37:00,24.0,19.6,30.15,West,280,5.0,7.0,83,0.00,,,0.00,Wunderground v.1.15,2013-01-06 16:37:00,
2013-01-06 10:42:00,24.1,19.7,30.15,WNW,287,5.0,6.0,83,0.00,,,0.00,Wunderground v.1.15,2013-01-06 16:42:00,
2013-01-06 10:47:00,24.2,19.8,30.15,West,266,5.0,6.0,83,0.00,,,0.00,Wunderground v.1.15,2013-01-06 16:47:00,
2013-01-06 10:52:00,24.5,20.1,30.15,West,278,4.0,5.0,83,0.00,,,0.00,Wunderground v.1.15,2013-01-06 16:52:00,
2013-01-06 10:58:00,24.7,20.3,30.14,WNW,290,5.0,8.0,83,0.00,,,0.00,Wunderground v.1.15,2013-01-06 16:58:00,
2013-01-06 11:03:00,25.1,20.9,30.15,WNW,289,5.0,11.0,84,0.00,,,0.00,Wunderground v.1.15,2013-01-06 17:03:00,
2013-01-06 11:08:00,25.3,20.6,30.15,West,278,5.0,11.0,82,0.00,,,0.00,Wunderground v.1.15,2013-01-06 17:08:00,
2013-01-06 11:13:00,25.6,21.2,30.15,WNW,294,5.0,5.0,83,0.00,,,0.00,Wunderground v.1.15,2013-01-06 17:13:00,
2013-01-06 11:18:00,25.8,21.1,30.15,West,281,4.0,8.0,82,0.00,,,0.00,Wunderground v.1.15,2013-01-06 17:18:00,
2013-01-06 11:24:00,26.2,22.0,30.15,WNW,288,4.0,5.0,84,0.00,,,0.00,Wunderground v.1.15,2013-01-06 17:24:00,
2013-01-06 11:29:00,26.6,22.1,30.15,NW,310,4.0,5.0,83,0.00,,,0.00,Wunderground v.1.15,2013-01-06 17:29:00,
2013-01-06 11:34:00,27.0,22.2,30.15,WNW,288,4.0,6.0,82,0.00,,,0.00,Wunderground v.1.15,2013-01-06 17:34:00,
2013-01-06 11:39:00,27.2,22.4,30.15,WNW,293,5.0,6.0,82,0.00,,,0.00,Wunderground v.1.15,2013-01-06 17:39:00,
2013-01-06 11:44:00,27.2,22.4,30.15,WNW,297,5.0,8.0,82,0.00,,,0.00,Wunderground v.1.15,2013-01-06 17:44:00,
2013-01-06 11:49:00,27.2,22.4,30.15,WNW,301,5.0,8.0,82,0.00,,,0.00,Wunderground v.1.15,2013-01-06 17:49:00,
2013-01-06 11:54:00,27.4,22.6,30.14,West,280,5.0,7.0,82,0.00,,,0.00,Wunderground v.1.15,2013-01-06 17:54:00,
2013-01-06 11:59:00,28.0,23.5,30.15,West,267,3.0,7.0,83,0.00,,,0.00,Wunderground v.1.15,2013-01-06 17:59:00,
2013-01-06 12:04:00,28.1,23.0,30.15,West,278,4.0,10.0,81,0.00,,,0.00,Wunderground v.1.15,2013-01-06 18:04:00,
2013-01-06 12:09:00,28.1,23.3,30.15,WNW,287,5.0,10.0,82,0.00,,,0.00,Wunderground v.1.15,2013-01-06 18:09:00,
2013-01-06 12:14:00,28.3,23.2,30.15,West,280,5.0,6.0,81,0.00,,,0.00,Wunderground v.1.15,2013-01-06 18:14:00,
2013-01-06 12:20:00,28.6,23.5,30.16,WNW,297,4.0,4.0,81,0.00,,,0.00,Wunderground v.1.15,2013-01-06 18:20:00,
2013-01-06 12:25:00,28.6,23.5,30.16,WNW,297,5.0,7.0,81,0.00,,,0.00,Wunderground v.1.15,2013-01-06 18:25:00,
2013-01-06 12:30:00,28.7,23.6,30.16,NW,307,5.0,5.0,81,0.00,,,0.00,Wunderground v.1.15,2013-01-06 18:30:00,
2013-01-06 12:35:00,29.0,23.9,30.16,WNW,284,5.0,6.0,81,0.00,,,0.00,Wunderground v.1.15,2013-01-06 18:35:00,
2013-01-06 12:40:00,29.2,24.1,30.16,NW,309,5.0,5.0,81,0.00,,,0.00,Wunderground v.1.15,2013-01-06 18:40:00,
2013-01-06 12:46:00,29.6,24.8,30.16,WNW,293,4.0,5.0,82,0.00,,,0.00,Wunderground v.1.15,2013-01-06 18:46:00,
2013-01-06 12:51:00,30.0,24.6,30.16,WNW,291,4.0,8.0,80,0.00,,,0.00,Wunderground v.1.15,2013-01-06 18:51:00,
2013-01-06 12:56:00,30.1,24.7,30.16,NNW,335,5.0,8.0,80,0.00,,,0.00,Wunderground v.1.15,2013-01-06 18:56:00,
2013-01-06 13:01:00,30.5,25.1,30.17,WNW,288,5.0,6.0,80,0.00,,,0.00,Wunderground v.1.15,2013-01-06 19:01:00,
2013-01-06 13:06:00,30.4,25.0,30.17,NW,309,5.0,8.0,80,0.00,,,0.00,Wunderground v.1.15,2013-01-06 19:06:00,
2013-01-06 13:12:00,30.2,24.5,30.17,WNW,297,5.0,9.0,79,0.00,,,0.00,Wunderground v.1.15,2013-01-06 19:12:00,
2013-01-06 13:17:00,30.3,24.6,30.17,West,278,6.0,10.0,79,0.00,,,0.00,Wunderground v.1.15,2013-01-06 19:17:00,
2013-01-06 13:22:00,30.2,24.5,30.16,WNW,286,5.0,5.0,79,0.00,,,0.00,Wunderground v.1.15,2013-01-06 19:22:00,
2013-01-06 13:27:00,30.1,24.4,30.17,NW,316,4.0,7.0,79,0.00,,,0.00,Wunderground v.1.15,2013-01-06 19:27:00,
2013-01-06 13:32:00,30.5,25.1,30.17,WNW,302,5.0,5.0,80,0.00,,,0.00,Wunderground v.1.15,2013-01-06 19:32:00,
2013-01-06 13:38:00,30.9,24.8,30.17,WNW,287,5.0,8.0,78,0.00,,,0.00,Wunderground v.1.15,2013-01-06 19:38:00,
2013-01-06 13:43:00,30.6,24.6,30.18,West,276,6.0,8.0,78,0.00,,,0.00,Wunderground v.1.15,2013-01-06 19:43:00,
2013-01-06 13:48:00,30.9,24.8,30.18,WNW,289,6.0,8.0,78,0.00,,,0.00,Wunderground v.1.15,2013-01-06 19:48:00,
2013-01-06 13:53:00,31.3,25.5,30.18,WNW,302,5.0,7.0,79,0.00,,,0.00,Wunderground v.1.15,2013-01-06 19:53:00,
2013-01-06 13:58:00,31.1,25.0,30.18,WNW,299,5.0,7.0,78,0.00,,,0.00,Wunderground v.1.15,2013-01-06 19:58:00,
2013-01-06 14:04:00,31.4,25.3,30.18,NW,304,5.0,8.0,78,0.00,,,0.00,Wunderground v.1.15,2013-01-06 20:04:00,
2013-01-06 14:09:00,31.6,25.2,30.19,WNW,293,5.0,8.0,77,0.00,,,0.00,Wunderground v.1.15,2013-01-06 20:09:00,
2013-01-06 14:12:00,31.9,25.8,30.19,NW,325,4.0,4.0,78,0.00,,,0.00,Wunderground v.1.15,2013-01-06 20:12:00,
2013-01-06 14:14:00,31.9,25.2,30.18,NW,304,4.0,6.0,76,0.00,,,0.00,Wunderground v.1.15,2013-01-06 20:14:00,
2013-01-06 14:19:00,31.9,25.5,30.19,NW,311,5.0,6.0,77,0.00,,,0.00,Wunderground v.1.15,2013-01-06 20:19:00,
2013-01-06 14:24:00,32.2,25.5,30.18,West,262,5.0,5.0,76,0.00,,,0.00,Wunderground v.1.15,2013-01-06 20:24:00,
2013-01-06 14:30:00,32.5,25.8,30.18,WNW,289,5.0,9.0,76,0.00,,,0.00,Wunderground v.1.15,2013-01-06 20:30:00,
2013-01-06 14:35:00,32.7,26.0,30.19,WNW,284,5.0,9.0,76,0.00,,,0.00,Wunderground v.1.15,2013-01-06 20:35:00,
2013-01-06 14:40:00,32.9,25.8,30.19,WNW,294,4.0,4.0,75,0.00,,,0.00,Wunderground v.1.15,2013-01-06 20:40:00,
2013-01-06 14:45:00,32.9,25.8,30.20,West,281,5.0,6.0,75,0.00,,,0.00,Wunderground v.1.15,2013-01-06 20:45:00,
2013-01-06 14:50:00,33.2,26.5,30.21,NW,309,5.0,5.0,76,0.00,,,0.00,Wunderground v.1.15,2013-01-06 20:50:00,
2013-01-06 14:56:00,33.1,26.0,30.21,NNW,327,5.0,7.0,75,0.00,,,0.00,Wunderground v.1.15,2013-01-06 20:56:00,
2013-01-06 15:01:00,33.1,26.0,30.22,WNW,288,5.0,6.0,75,0.00,,,0.00,Wunderground v.1.15,2013-01-06 21:01:00,
2013-01-06 15:05:00,33.0,25.9,30.22,WNW,297,5.0,10.0,75,0.00,,,0.00,Wunderground v.1.15,2013-01-06 21:05:00,
2013-01-06 15:11:00,32.5,25.5,30.22,WNW,284,5.0,5.0,75,0.00,,,0.00,Wunderground v.1.15,2013-01-06 21:11:00,
2013-01-06 15:16:00,32.3,25.3,30.23,West,281,6.0,8.0,75,0.00,,,0.00,Wunderground v.1.15,2013-01-06 21:16:00,
2013-01-06 15:21:00,32.1,25.4,30.23,West,281,6.0,8.0,76,0.00,,,0.00,Wunderground v.1.15,2013-01-06 21:21:00,
2013-01-06 15:26:00,32.0,25.3,30.23,WNW,293,5.0,8.0,76,0.00,,,0.00,Wunderground v.1.15,2013-01-06 21:26:00,
2013-01-06 15:32:00,31.7,25.0,30.23,WNW,299,4.0,8.0,76,0.00,,,0.00,Wunderground v.1.15,2013-01-06 21:32:00,
2013-01-06 15:37:00,31.8,25.1,30.23,WNW,287,4.0,8.0,76,0.00,,,0.00,Wunderground v.1.15,2013-01-06 21:37:00,
2013-01-06 15:42:00,31.7,25.0,30.24,WNW,290,5.0,6.0,76,0.00,,,0.00,Wunderground v.1.15,2013-01-06 21:42:00,
2013-01-06 15:47:00,31.8,25.1,30.24,WNW,291,5.0,6.0,76,0.00,,,0.00,Wunderground v.1.15,2013-01-06 21:47:00,
2013-01-06 15:52:00,32.0,25.3,30.24,NW,305,4.0,4.0,76,0.00,,,0.00,Wunderground v.1.15,2013-01-06 21:52:00,
2013-01-06 15:58:00,31.9,25.2,30.24,WNW,297,3.0,6.0,76,0.00,,,0.00,Wunderground v.1.15,2013-01-06 21:58:00,
2013-01-06 16:03:00,31.8,25.1,30.24,WNW,284,3.0,8.0,76,0.00,,,0.00,Wunderground v.1.15,2013-01-06 22:03:00,
2013-01-06 16:08:00,31.7,25.0,30.24,WNW,291,3.0,8.0,76,0.00,,,0.00,Wunderground v.1.15,2013-01-06 22:08:00,
2013-01-06 16:13:00,31.3,24.9,30.25,WNW,297,3.0,3.0,77,0.00,,,0.00,Wunderground v.1.15,2013-01-06 22:13:00,
2013-01-06 16:18:00,31.0,24.9,30.25,WNW,283,2.0,3.0,78,0.00,,,0.00,Wunderground v.1.15,2013-01-06 22:18:00,
2013-01-06 16:24:00,30.7,24.7,30.25,West,280,3.0,8.0,78,0.00,,,0.00,Wunderground v.1.15,2013-01-06 22:24:00,
2013-01-06 16:29:00,30.7,24.7,30.26,West,277,3.0,8.0,78,0.00,,,0.00,Wunderground v.1.15,2013-01-06 22:29:00,
2013-01-06 16:34:00,30.6,24.6,30.27,WNW,284,3.0,4.0,78,0.00,,,0.00,Wunderground v.1.15,2013-01-06 22:34:00,
2013-01-06 16:39:00,30.4,24.7,30.27,WNW,283,2.0,5.0,79,0.00,,,0.00,Wunderground v.1.15,2013-01-06 22:39:00,
2013-01-06 16:44:00,30.2,24.5,30.27,WNW,288,3.0,3.0,79,0.00,,,0.00,Wunderground v.1.15,2013-01-06 22:44:00,
2013-01-06 16:50:00,30.0,24.3,30.27,West,280,2.0,2.0,79,0.00,,,0.00,Wunderground v.1.15,2013-01-06 22:50:00,
2013-01-06 16:55:00,29.7,24.3,30.28,WNW,283,1.0,2.0,80,0.00,,,0.00,Wunderground v.1.15,2013-01-06 22:55:00,
2013-01-06 17:00:00,29.6,24.2,30.28,WNW,283,1.0,1.0,80,0.00,,,0.00,Wunderground v.1.15,2013-01-06 23:00:00,
2013-01-06 17:05:00,29.4,24.0,30.28,West,276,1.0,7.0,80,0.00,,,0.00,Wunderground v.1.15,2013-01-06 23:05:00,
2013-01-06 17:11:00,29.1,23.7,30.28,West,274,1.0,1.0,80,0.00,,,0.00,Wunderground v.1.15,2013-01-06 23:11:00,
2013-01-06 17:16:00,29.0,23.9,30.29,West,264,2.0,3.0,81,0.00,,,0.00,Wunderground v.1.15,2013-01-06 23:16:00,
2013-01-06 17:21:00,28.8,23.7,30.29,West,270,2.0,2.0,81,0.00,,,0.00,Wunderground v.1.15,2013-01-06 23:21:00,
2013-01-06 17:26:00,28.6,23.5,30.29,West,276,1.0,2.0,81,0.00,,,0.00,Wunderground v.1.15,2013-01-06 23:26:00,
2013-01-06 17:31:00,28.6,23.8,30.30,West,271,1.0,3.0,82,0.00,,,0.00,Wunderground v.1.15,2013-01-06 23:31:00,
2013-01-06 17:36:00,28.6,23.8,30.30,WNW,287,2.0,3.0,82,0.00,,,0.00,Wunderground v.1.15,2013-01-06 23:36:00,
2013-01-06 17:42:00,28.5,23.7,30.31,West,272,2.0,3.0,82,0.00,,,0.00,Wunderground v.1.15,2013-01-06 23:42:00,
2013-01-06 17:47:00,28.3,23.5,30.31,WNW,287,2.0,3.0,82,0.00,,,0.00,Wunderground v.1.15,2013-01-06 23:47:00,
2013-01-06 17:52:00,28.2,23.4,30.31,West,280,2.0,4.0,82,0.00,,,0.00,Wunderground v.1.15,2013-01-06 23:52:00,
2013-01-06 17:57:00,28.0,23.2,30.32,West,280,2.0,4.0,82,0.00,,,0.00,Wunderground v.1.15,2013-01-06 23:57:00,
2013-01-06 18:02:00,27.8,23.0,30.32,West,263,2.0,3.0,82,0.00,,,0.00,Wunderground v.1.15,2013-01-07 00:02:00,
2013-01-06 18:08:00,27.6,23.1,30.32,West,280,2.0,3.0,83,0.00,,,0.00,Wunderground v.1.15,2013-01-07 00:08:00,
2013-01-06 18:13:00,27.4,22.9,30.33,WNW,284,2.0,2.0,83,0.00,,,0.00,Wunderground v.1.15,2013-01-07 00:13:00,
2013-01-06 18:18:00,27.3,22.8,30.33,West,280,2.0,3.0,83,0.00,,,0.00,Wunderground v.1.15,2013-01-07 00:18:00,
2013-01-06 18:23:00,27.2,23.0,30.33,West,281,2.0,6.0,84,0.00,,,0.00,Wunderground v.1.15,2013-01-07 00:23:00,
2013-01-06 18:28:00,27.0,22.8,30.33,WNW,287,2.0,6.0,84,0.00,,,0.00,Wunderground v.1.15,2013-01-07 00:28:00,
2013-01-06 18:34:00,26.9,22.7,30.33,WNW,290,3.0,4.0,84,0.00,,,0.00,Wunderground v.1.15,2013-01-07 00:34:00,
2013-01-06 18:39:00,26.7,22.5,30.33,West,281,3.0,4.0,84,0.00,,,0.00,Wunderground v.1.15,2013-01-07 00:39:00,
2013-01-06 18:44:00,26.5,22.6,30.33,West,278,2.0,4.0,85,0.00,,,0.00,Wunderground v.1.15,2013-01-07 00:44:00,
2013-01-06 18:49:00,26.3,22.4,30.33,West,273,2.0,4.0,85,0.00,,,0.00,Wunderground v.1.15,2013-01-07 00:49:00,
2013-01-06 18:55:00,26.1,22.2,30.34,West,271,2.0,4.0,85,0.00,,,0.00,Wunderground v.1.15,2013-01-07 00:55:00,
2013-01-06 19:01:00,25.8,22.2,30.34,West,276,2.0,4.0,86,0.00,,,0.00,Wunderground v.1.15,2013-01-07 01:01:00,
2013-01-06 19:06:00,25.7,22.1,30.34,WNW,283,2.0,4.0,86,0.00,,,0.00,Wunderground v.1.15,2013-01-07 01:06:00,
2013-01-06 19:11:00,25.6,22.0,30.34,West,274,2.0,3.0,86,0.00,,,0.00,Wunderground v.1.15,2013-01-07 01:11:00,
2013-01-06 19:16:00,25.3,21.7,30.34,West,269,2.0,3.0,86,0.00,,,0.00,Wunderground v.1.15,2013-01-07 01:16:00,
2013-01-06 19:21:00,25.2,21.9,30.34,WNW,285,1.0,2.0,87,0.00,,,0.00,Wunderground v.1.15,2013-01-07 01:21:00,
2013-01-06 19:26:00,25.0,21.7,30.34,WNW,287,2.0,2.0,87,0.00,,,0.00,Wunderground v.1.15,2013-01-07 01:26:00,
2013-01-06 19:31:00,25.0,21.7,30.35,West,269,2.0,3.0,87,0.00,,,0.00,Wunderground v.1.15,2013-01-07 01:31:00,
2013-01-06 19:36:00,24.9,21.6,30.35,West,276,2.0,3.0,87,0.00,,,0.00,Wunderground v.1.15,2013-01-07 01:36:00,
2013-01-06 19:41:00,24.7,21.4,30.35,West,278,1.0,1.0,87,0.00,,,0.00,Wunderground v.1.15,2013-01-07 01:41:00,
2013-01-06 19:46:00,24.5,21.2,30.35,WSW,255,1.0,1.0,87,0.00,,,0.00,Wunderground v.1.15,2013-01-07 01:46:00,
2013-01-06 19:51:00,24.3,21.3,30.35,WSW,254,0.0,1.0,88,0.00,,,0.00,Wunderground v.1.15,2013-01-07 01:51:00,
2013-01-06 19:57:00,24.0,21.0,30.35,WSW,238,1.0,2.0,88,0.00,,,0.00,Wunderground v.1.15,2013-01-07 01:57:00,
2013-01-06 20:02:00,23.9,21.1,30.36,WNW,288,1.0,3.0,89,0.00,,,0.00,Wunderground v.1.15,2013-01-07 02:02:00,
2013-01-06 20:07:00,23.8,21.0,30.36,West,269,1.0,3.0,89,0.00,,,0.00,Wunderground v.1.15,2013-01-07 02:07:00,
2013-01-06 20:12:00,23.7,20.9,30.36,West,269,1.0,2.0,89,0.00,,,0.00,Wunderground v.1.15,2013-01-07 02:12:00,
2013-01-06 20:17:00,23.7,20.9,30.36,West,269,1.0,2.0,89,0.00,,,0.00,Wunderground v.1.15,2013-01-07 02:17:00,
2013-01-06 20:23:00,23.5,20.7,30.37,West,270,1.0,1.0,89,0.00,,,0.00,Wunderground v.1.15,2013-01-07 02:23:00,
2013-01-06 20:28:00,23.4,20.9,30.36,West,269,1.0,3.0,90,0.00,,,0.00,Wunderground v.1.15,2013-01-07 02:28:00,
2013-01-06 20:33:00,23.3,20.8,30.36,WSW,245,1.0,2.0,90,0.00,,,0.00,Wunderground v.1.15,2013-01-07 02:33:00,
2013-01-06 20:38:00,23.2,20.7,30.36,WNW,287,1.0,2.0,90,0.00,,,0.00,Wunderground v.1.15,2013-01-07 02:38:00,
2013-01-06 20:43:00,23.2,20.7,30.36,WSW,249,1.0,2.0,90,0.00,,,0.00,Wunderground v.1.15,2013-01-07 02:43:00,
2013-01-06 20:49:00,23.1,20.6,30.36,WSW,243,1.0,2.0,90,0.00,,,0.00,Wunderground v.1.15,2013-01-07 02:49:00,
2013-01-06 20:56:00,22.8,20.3,30.36,SW,221,0.0,0.0,90,0.00,,,0.00,Wunderground v.1.15,2013-01-07 02:56:00,
2013-01-06 21:02:00,22.5,20.0,30.36,SW,221,0.0,0.0,90,0.00,,,0.00,Wunderground v.1.15,2013-01-07 03:02:00,
2013-01-06 21:07:00,22.2,19.7,30.36,ESE,113,0.0,0.0,90,0.00,,,0.00,Wunderground v.1.15,2013-01-07 03:07:00,
2013-01-06 21:12:00,21.7,19.2,30.36,ESE,113,0.0,0.0,90,0.00,,,0.00,Wunderground v.1.15,2013-01-07 03:12:00,
2013-01-06 21:17:00,21.4,18.9,30.36,ESE,114,0.0,0.0,90,0.00,,,0.00,Wunderground v.1.15,2013-01-07 03:17:00,
2013-01-06 21:22:00,21.1,18.9,30.36,ESE,114,0.0,0.0,91,0.00,,,0.00,Wunderground v.1.15,2013-01-07 03:22:00,